Terminal Aerodrome Forecast
Issued by NWS Indianapolis, IN

Current Version | Previous Version | Text Only | Print | Product List | Glossary On
Versions: 1 2 3 4 5 6 7 8 9 10 11 12 13 14 15 16 17 18 19 20 21 22 23 24 25 26 27 28 29
983
FTUS43 KIND 230520
TAFIND
TAF
KIND 230520Z 2306/2412 20008KT P6SM SCT080
     FM231100 23006KT 6SM BR SCT012 BKN035
     FM231300 23006KT 5SM BR BKN008
     FM231700 22006KT P6SM BKN020
     FM232300 15005KT 6SM BR OVC025
     FM240200 15006KT 5SM BR BKN015
     FM240600 16008KT P6SM OVC025
     FM241100 18011KT P6SM BKN025=

USA.gov is the U.S. government's official web portal to all federal, state and local government web resources and services.